sensor_id;sensor_type;location;lat;lon;timestamp;temperature;humidity
3792;DHT22;1911;53.768;11.474;2023-07-09T00:01:41;17.70;1.00
3792;DHT22;1911;53.768;11.474;2023-07-09T00:04:11;17.70;1.00
3792;DHT22;1911;53.768;11.474;2023-07-09T00:06:37;17.60;1.00
3792;DHT22;1911;53.768;11.474;2023-07-09T00:09:04;17.50;1.00
3792;DHT22;1911;53.768;11.474;2023-07-09T00:11:30;17.50;1.00
3792;DHT22;1911;53.768;11.474;2023-07-09T00:13:56;17.50;1.00
3792;DHT22;1911;53.768;11.474;2023-07-09T00:16:25;17.40;1.00
3792;DHT22;1911;53.768;11.474;2023-07-09T00:18:51;17.30;1.00
3792;DHT22;1911;53.768;11.474;2023-07-09T00:21:18;17.30;1.00
3792;DHT22;1911;53.768;11.474;2023-07-09T00:23:45;17.30;1.00
3792;DHT22;1911;53.768;11.474;2023-07-09T00:26:15;17.30;1.00
3792;DHT22;1911;53.768;11.474;2023-07-09T00:28:42;17.20;42.10
3792;DHT22;1911;53.768;11.474;2023-07-09T00:31:13;17.30;90.00
3792;DHT22;1911;53.768;11.474;2023-07-09T00:33:45;17.20;99.90
3792;DHT22;1911;53.768;11.474;2023-07-09T00:36:29;17.20;99.90
3792;DHT22;1911;53.768;11.474;2023-07-09T00:38:57;17.20;99.90
3792;DHT22;1911;53.768;11.474;2023-07-09T00:41:25;17.20;99.90
3792;DHT22;1911;53.768;11.474;2023-07-09T00:43:52;17.20;99.90
3792;DHT22;1911;53.768;11.474;2023-07-09T00:48:56;17.00;99.90
3792;DHT22;1911;53.768;11.474;2023-07-09T00:51:26;16.90;99.90
3792;DHT22;1911;53.768;11.474;2023-07-09T00:53:57;16.90;99.90
3792;DHT22;1911;53.768;11.474;2023-07-09T00:56:31;16.90;99.90
3792;DHT22;1911;53.768;11.474;2023-07-09T00:59:00;16.90;99.90
3792;DHT22;1911;53.768;11.474;2023-07-09T01:01:30;16.90;99.90
3792;DHT22;1911;53.768;11.474;2023-07-09T01:03:57;16.80;99.90
3792;DHT22;1911;53.768;11.474;2023-07-09T01:06:31;16.80;99.90
3792;DHT22;1911;53.768;11.474;2023-07-09T01:08:58;16.80;1.00
3792;DHT22;1911;53.768;11.474;2023-07-09T01:11:26;16.70;1.00
3792;DHT22;1911;53.768;11.474;2023-07-09T01:13:55;16.70;1.00
3792;DHT22;1911;53.768;11.474;2023-07-09T01:16:24;16.50;1.00
3792;DHT22;1911;53.768;11.474;2023-07-09T01:18:51;16.50;1.00
3792;DHT22;1911;53.768;11.474;2023-07-09T01:21:17;16.50;1.00
3792;DHT22;1911;53.768;11.474;2023-07-09T01:23:44;16.40;99.90
3792;DHT22;1911;53.768;11.474;2023-07-09T01:26:12;16.40;99.90
3792;DHT22;1911;53.768;11.474;2023-07-09T01:28:38;16.40;99.90
3792;DHT22;1911;53.768;11.474;2023-07-09T01:31:07;16.40;99.90
3792;DHT22;1911;53.768;11.474;2023-07-09T01:33:33;16.40;99.90
3792;DHT22;1911;53.768;11.474;2023-07-09T01:35:59;16.30;99.90
3792;DHT22;1911;53.768;11.474;2023-07-09T01:38:26;16.30;99.90
3792;DHT22;1911;53.768;11.474;2023-07-09T01:40:56;16.30;99.90
3792;DHT22;1911;53.768;11.474;2023-07-09T01:43:22;16.20;99.90
3792;DHT22;1911;53.768;11.474;2023-07-09T01:45:47;16.20;99.90
3792;DHT22;1911;53.768;11.474;2023-07-09T01:48:16;16.30;99.90
3792;DHT22;1911;53.768;11.474;2023-07-09T01:50:43;16.30;99.90
3792;DHT22;1911;53.768;11.474;2023-07-09T01:53:11;16.30;99.90
3792;DHT22;1911;53.768;11.474;2023-07-09T01:55:37;16.30;99.90
3792;DHT22;1911;53.768;11.474;2023-07-09T01:58:03;16.30;99.90
3792;DHT22;1911;53.768;11.474;2023-07-09T02:00:33;16.30;99.90
3792;DHT22;1911;53.768;11.474;2023-07-09T02:03:03;16.30;99.90
3792;DHT22;1911;53.768;11.474;2023-07-09T02:05:31;16.30;99.90
3792;DHT22;1911;53.768;11.474;2023-07-09T02:07:56;16.20;99.90
3792;DHT22;1911;53.768;11.474;2023-07-09T02:10:22;16.20;99.90
3792;DHT22;1911;53.768;11.474;2023-07-09T02:12:48;16.20;99.90
3792;DHT22;1911;53.768;11.474;2023-07-09T02:15:15;16.20;99.90
3792;DHT22;1911;53.768;11.474;2023-07-09T02:17:41;16.20;99.90
3792;DHT22;1911;53.768;11.474;2023-07-09T02:20:09;16.20;99.90
3792;DHT22;1911;53.768;11.474;2023-07-09T02:22:36;16.20;99.90
3792;DHT22;1911;53.768;11.474;2023-07-09T02:25:03;16.10;99.90
3792;DHT22;1911;53.768;11.474;2023-07-09T02:27:29;16.10;99.90
3792;DHT22;1911;53.768;11.474;2023-07-09T02:29:54;16.10;99.90
3792;DHT22;1911;53.768;11.474;2023-07-09T02:32:23;16.10;99.90
3792;DHT22;1911;53.768;11.474;2023-07-09T02:34:51;16.10;99.90
3792;DHT22;1911;53.768;11.474;2023-07-09T02:37:25;16.10;1.00
3792;DHT22;1911;53.768;11.474;2023-07-09T02:39:51;16.10;1.00
3792;DHT22;1911;53.768;11.474;2023-07-09T02:42:18;16.00;1.00
3792;DHT22;1911;53.768;11.474;2023-07-09T02:44:45;15.80;1.00
3792;DHT22;1911;53.768;11.474;2023-07-09T02:47:11;15.80;1.00
3792;DHT22;1911;53.768;11.474;2023-07-09T02:49:37;15.80;1.00
3792;DHT22;1911;53.768;11.474;2023-07-09T02:52:03;15.70;1.40
3792;DHT22;1911;53.768;11.474;2023-07-09T02:54:29;15.80;27.30
3792;DHT22;1911;53.768;11.474;2023-07-09T02:56:55;15.80;93.70
3792;DHT22;1911;53.768;11.474;2023-07-09T02:59:20;15.70;99.90
3792;DHT22;1911;53.768;11.474;2023-07-09T03:01:46;15.70;99.90
3792;DHT22;1911;53.768;11.474;2023-07-09T03:04:13;15.70;98.30
3792;DHT22;1911;53.768;11.474;2023-07-09T03:06:39;15.70;97.70
3792;DHT22;1911;53.768;11.474;2023-07-09T03:09:06;15.70;99.90
3792;DHT22;1911;53.768;11.474;2023-07-09T03:11:33;15.70;99.90
3792;DHT22;1911;53.768;11.474;2023-07-09T03:14:00;15.70;99.90
3792;DHT22;1911;53.768;11.474;2023-07-09T03:16:27;15.70;99.90
3792;DHT22;1911;53.768;11.474;2023-07-09T03:18:54;15.70;99.90
3792;DHT22;1911;53.768;11.474;2023-07-09T03:21:21;15.70;99.80
3792;DHT22;1911;53.768;11.474;2023-07-09T03:23:46;15.70;99.90
3792;DHT22;1911;53.768;11.474;2023-07-09T03:26:12;15.70;99.90
3792;DHT22;1911;53.768;11.474;2023-07-09T03:28:38;15.80;99.90
3792;DHT22;1911;53.768;11.474;2023-07-09T03:31:05;15.70;99.90
3792;DHT22;1911;53.768;11.474;2023-07-09T03:33:30;15.80;99.90
3792;DHT22;1911;53.768;11.474;2023-07-09T03:35:56;15.80;99.90
3792;DHT22;1911;53.768;11.474;2023-07-09T03:38:21;15.80;99.90
3792;DHT22;1911;53.768;11.474;2023-07-09T03:40:52;15.90;99.90
3792;DHT22;1911;53.768;11.474;2023-07-09T03:43:18;16.00;99.90
3792;DHT22;1911;53.768;11.474;2023-07-09T03:45:44;16.00;99.90
3792;DHT22;1911;53.768;11.474;2023-07-09T03:48:10;16.00;99.90
3792;DHT22;1911;53.768;11.474;2023-07-09T03:50:35;16.00;99.90
3792;DHT22;1911;53.768;11.474;2023-07-09T03:53:01;16.00;99.90
3792;DHT22;1911;53.768;11.474;2023-07-09T03:55:27;16.00;99.90
3792;DHT22;1911;53.768;11.474;2023-07-09T03:57:56;16.10;99.90
3792;DHT22;1911;53.768;11.474;2023-07-09T04:00:22;16.10;99.90
3792;DHT22;1911;53.768;11.474;2023-07-09T04:02:48;16.20;99.90
3792;DHT22;1911;53.768;11.474;2023-07-09T04:05:13;16.20;99.90
3792;DHT22;1911;53.768;11.474;2023-07-09T04:07:39;16.30;99.90
3792;DHT22;1911;53.768;11.474;2023-07-09T04:10:06;16.30;99.90
3792;DHT22;1911;53.768;11.474;2023-07-09T04:12:32;16.40;99.90
3792;DHT22;1911;53.768;11.474;2023-07-09T04:14:58;16.50;99.90
3792;DHT22;1911;53.768;11.474;2023-07-09T04:17:23;16.60;99.90
3792;DHT22;1911;53.768;11.474;2023-07-09T04:19:50;16.70;99.90
3792;DHT22;1911;53.768;11.474;2023-07-09T04:22:16;16.80;99.90
3792;DHT22;1911;53.768;11.474;2023-07-09T04:24:42;16.90;99.90
3792;DHT22;1911;53.768;11.474;2023-07-09T04:27:08;17.00;99.90
3792;DHT22;1911;53.768;11.474;2023-07-09T04:29:34;17.00;99.90
3792;DHT22;1911;53.768;11.474;2023-07-09T04:32:07;17.10;99.90
3792;DHT22;1911;53.768;11.474;2023-07-09T04:34:36;17.20;99.90
3792;DHT22;1911;53.768;11.474;2023-07-09T04:37:06;17.30;99.90
3792;DHT22;1911;53.768;11.474;2023-07-09T04:39:32;17.30;75.50
3792;DHT22;1911;53.768;11.474;2023-07-09T04:41:57;17.40;24.90
3792;DHT22;1911;53.768;11.474;2023-07-09T04:44:23;17.50;25.40
3792;DHT22;1911;53.768;11.474;2023-07-09T04:46:50;17.60;22.30
3792;DHT22;1911;53.768;11.474;2023-07-09T04:49:16;17.70;28.90
3792;DHT22;1911;53.768;11.474;2023-07-09T04:51:41;17.70;12.80
3792;DHT22;1911;53.768;11.474;2023-07-09T04:54:07;17.80;18.00
3792;DHT22;1911;53.768;11.474;2023-07-09T04:56:32;18.00;12.10
3792;DHT22;1911;53.768;11.474;2023-07-09T04:58:58;18.10;1.70
3792;DHT22;1911;53.768;11.474;2023-07-09T05:01:24;18.30;1.00
3792;DHT22;1911;53.768;11.474;2023-07-09T05:03:49;18.40;1.00
3792;DHT22;1911;53.768;11.474;2023-07-09T05:06:15;18.60;1.00
3792;DHT22;1911;53.768;11.474;2023-07-09T05:08:41;18.70;1.00
3792;DHT22;1911;53.768;11.474;2023-07-09T05:11:08;18.80;1.00
3792;DHT22;1911;53.768;11.474;2023-07-09T05:13:36;18.80;1.00
3792;DHT22;1911;53.768;11.474;2023-07-09T05:16:02;18.90;1.00
3792;DHT22;1911;53.768;11.474;2023-07-09T05:18:27;19.00;1.00
3792;DHT22;1911;53.768;11.474;2023-07-09T05:20:54;19.20;1.00
3792;DHT22;1911;53.768;11.474;2023-07-09T05:23:25;19.40;1.00
3792;DHT22;1911;53.768;11.474;2023-07-09T05:26:01;19.70;1.00
3792;DHT22;1911;53.768;11.474;2023-07-09T05:28:28;19.90;1.00
3792;DHT22;1911;53.768;11.474;2023-07-09T05:30:54;20.50;1.00
3792;DHT22;1911;53.768;11.474;2023-07-09T05:33:20;21.60;99.90
3792;DHT22;1911;53.768;11.474;2023-07-09T05:35:46;22.90;1.00
3792;DHT22;1911;53.768;11.474;2023-07-09T05:38:13;24.10;1.00
3792;DHT22;1911;53.768;11.474;2023-07-09T05:40:39;25.40;99.90
3792;DHT22;1911;53.768;11.474;2023-07-09T05:43:05;26.90;50.10
3792;DHT22;1911;53.768;11.474;2023-07-09T05:45:31;27.50;1.00
3792;DHT22;1911;53.768;11.474;2023-07-09T05:48:00;28.20;1.00
3792;DHT22;1911;53.768;11.474;2023-07-09T05:50:26;28.60;1.00
3792;DHT22;1911;53.768;11.474;2023-07-09T05:52:52;28.60;1.00
3792;DHT22;1911;53.768;11.474;2023-07-09T05:55:18;28.90;1.00
3792;DHT22;1911;53.768;11.474;2023-07-09T05:57:43;29.30;1.00
3792;DHT22;1911;53.768;11.474;2023-07-09T06:00:09;30.00;1.00
3792;DHT22;1911;53.768;11.474;2023-07-09T06:02:35;30.20;1.00
3792;DHT22;1911;53.768;11.474;2023-07-09T06:05:01;30.20;1.00
3792;DHT22;1911;53.768;11.474;2023-07-09T06:07:27;30.80;1.00
3792;DHT22;1911;53.768;11.474;2023-07-09T06:09:53;31.60;1.00
3792;DHT22;1911;53.768;11.474;2023-07-09T06:12:19;32.00;1.00
3792;DHT22;1911;53.768;11.474;2023-07-09T06:14:45;32.90;1.00
3792;DHT22;1911;53.768;11.474;2023-07-09T06:17:11;33.30;1.00
3792;DHT22;1911;53.768;11.474;2023-07-09T06:19:38;33.50;1.00
3792;DHT22;1911;53.768;11.474;2023-07-09T06:22:04;33.40;1.00
3792;DHT22;1911;53.768;11.474;2023-07-09T06:24:30;33.80;1.00
3792;DHT22;1911;53.768;11.474;2023-07-09T06:26:55;34.40;1.00
3792;DHT22;1911;53.768;11.474;2023-07-09T06:29:23;34.80;1.00
3792;DHT22;1911;53.768;11.474;2023-07-09T06:31:48;33.90;1.00
3792;DHT22;1911;53.768;11.474;2023-07-09T06:34:14;33.10;1.00
3792;DHT22;1911;53.768;11.474;2023-07-09T06:36:39;31.50;99.90
3792;DHT22;1911;53.768;11.474;2023-07-09T06:39:05;29.80;99.90
3792;DHT22;1911;53.768;11.474;2023-07-09T06:41:31;28.50;99.90
3792;DHT22;1911;53.768;11.474;2023-07-09T06:43:58;28.00;99.90
3792;DHT22;1911;53.768;11.474;2023-07-09T06:46:23;27.10;99.90
3792;DHT22;1911;53.768;11.474;2023-07-09T06:48:49;26.80;99.90
3792;DHT22;1911;53.768;11.474;2023-07-09T06:51:17;26.40;99.90
3792;DHT22;1911;53.768;11.474;2023-07-09T06:53:43;26.40;99.90
3792;DHT22;1911;53.768;11.474;2023-07-09T06:56:13;26.70;99.90
3792;DHT22;1911;53.768;11.474;2023-07-09T06:58:38;27.40;1.00
3792;DHT22;1911;53.768;11.474;2023-07-09T07:01:04;27.70;1.00
3792;DHT22;1911;53.768;11.474;2023-07-09T07:03:31;27.80;1.00
3792;DHT22;1911;53.768;11.474;2023-07-09T07:05:57;28.90;1.00
3792;DHT22;1911;53.768;11.474;2023-07-09T07:08:24;30.30;1.00
3792;DHT22;1911;53.768;11.474;2023-07-09T07:10:54;31.20;1.00
3792;DHT22;1911;53.768;11.474;2023-07-09T07:13:30;31.80;1.00
3792;DHT22;1911;53.768;11.474;2023-07-09T07:15:56;33.20;1.00
3792;DHT22;1911;53.768;11.474;2023-07-09T07:18:22;34.40;1.00
3792;DHT22;1911;53.768;11.474;2023-07-09T07:20:52;34.90;1.00
3792;DHT22;1911;53.768;11.474;2023-07-09T07:23:17;35.70;1.00
3792;DHT22;1911;53.768;11.474;2023-07-09T07:25:45;35.80;1.00
3792;DHT22;1911;53.768;11.474;2023-07-09T07:28:11;36.20;1.00
3792;DHT22;1911;53.768;11.474;2023-07-09T07:30:36;36.20;1.00
3792;DHT22;1911;53.768;11.474;2023-07-09T07:33:02;36.60;1.00
3792;DHT22;1911;53.768;11.474;2023-07-09T07:35:28;37.00;1.00
3792;DHT22;1911;53.768;11.474;2023-07-09T07:37:53;37.00;1.00
3792;DHT22;1911;53.768;11.474;2023-07-09T07:40:19;37.10;1.00
3792;DHT22;1911;53.768;11.474;2023-07-09T07:42:45;37.50;1.00
3792;DHT22;1911;53.768;11.474;2023-07-09T07:45:12;37.80;1.00
3792;DHT22;1911;53.768;11.474;2023-07-09T07:47:37;37.80;1.00
3792;DHT22;1911;53.768;11.474;2023-07-09T07:50:05;38.10;1.00
3792;DHT22;1911;53.768;11.474;2023-07-09T07:52:31;37.50;1.00
3792;DHT22;1911;53.768;11.474;2023-07-09T07:54:56;37.70;1.00
3792;DHT22;1911;53.768;11.474;2023-07-09T07:57:24;38.00;1.00
3792;DHT22;1911;53.768;11.474;2023-07-09T07:59:50;37.60;1.00
3792;DHT22;1911;53.768;11.474;2023-07-09T08:02:15;37.30;1.00
3792;DHT22;1911;53.768;11.474;2023-07-09T08:04:41;37.30;99.90
3792;DHT22;1911;53.768;11.474;2023-07-09T08:07:08;37.20;99.90
3792;DHT22;1911;53.768;11.474;2023-07-09T08:09:35;37.80;1.00
3792;DHT22;1911;53.768;11.474;2023-07-09T08:12:02;37.70;1.00
3792;DHT22;1911;53.768;11.474;2023-07-09T08:14:34;37.70;1.00
3792;DHT22;1911;53.768;11.474;2023-07-09T08:17:00;37.30;99.90
3792;DHT22;1911;53.768;11.474;2023-07-09T08:19:25;36.80;99.90
3792;DHT22;1911;53.768;11.474;2023-07-09T08:21:51;37.10;99.90
3792;DHT22;1911;53.768;11.474;2023-07-09T08:24:16;37.10;99.90
3792;DHT22;1911;53.768;11.474;2023-07-09T08:26:42;37.30;99.90
3792;DHT22;1911;53.768;11.474;2023-07-09T08:29:08;36.80;99.90
3792;DHT22;1911;53.768;11.474;2023-07-09T08:31:33;36.70;99.90
3792;DHT22;1911;53.768;11.474;2023-07-09T08:33:59;36.30;99.90
3792;DHT22;1911;53.768;11.474;2023-07-09T08:36:24;36.60;99.90
3792;DHT22;1911;53.768;11.474;2023-07-09T08:38:50;36.40;99.90
3792;DHT22;1911;53.768;11.474;2023-07-09T08:41:42;36.30;99.90
3792;DHT22;1911;53.768;11.474;2023-07-09T08:45:32;36.40;99.90
3792;DHT22;1911;53.768;11.474;2023-07-09T08:50:46;35.50;99.90
3792;DHT22;1911;53.768;11.474;2023-07-09T08:53:18;35.70;99.90
3792;DHT22;1911;53.768;11.474;2023-07-09T08:55:46;35.30;99.90
3792;DHT22;1911;53.768;11.474;2023-07-09T08:58:25;35.00;99.90
3792;DHT22;1911;53.768;11.474;2023-07-09T09:06:16;34.70;99.90
3792;DHT22;1911;53.768;11.474;2023-07-09T09:14:34;33.80;99.90
3792;DHT22;1911;53.768;11.474;2023-07-09T09:17:02;33.80;99.90
3792;DHT22;1911;53.768;11.474;2023-07-09T09:22:01;33.30;99.90
3792;DHT22;1911;53.768;11.474;2023-07-09T09:24:36;33.00;99.90
3792;DHT22;1911;53.768;11.474;2023-07-09T09:27:02;32.70;99.90
3792;DHT22;1911;53.768;11.474;2023-07-09T09:29:27;32.50;99.90
3792;DHT22;1911;53.768;11.474;2023-07-09T09:31:57;32.60;99.90
3792;DHT22;1911;53.768;11.474;2023-07-09T09:34:28;32.20;99.90
3792;DHT22;1911;53.768;11.474;2023-07-09T09:36:55;31.90;99.90
3792;DHT22;1911;53.768;11.474;2023-07-09T09:39:24;31.80;99.90
3792;DHT22;1911;53.768;11.474;2023-07-09T09:41:54;31.80;99.90
3792;DHT22;1911;53.768;11.474;2023-07-09T09:44:24;31.60;99.90
3792;DHT22;1911;53.768;11.474;2023-07-09T09:46:51;31.50;99.90
3792;DHT22;1911;53.768;11.474;2023-07-09T09:49:17;31.60;99.90
3792;DHT22;1911;53.768;11.474;2023-07-09T09:51:45;31.50;99.90
3792;DHT22;1911;53.768;11.474;2023-07-09T09:54:20;31.50;99.90
3792;DHT22;1911;53.768;11.474;2023-07-09T09:56:50;31.60;99.90
3792;DHT22;1911;53.768;11.474;2023-07-09T09:59:21;31.30;99.90
3792;DHT22;1911;53.768;11.474;2023-07-09T10:01:57;31.30;99.90
3792;DHT22;1911;53.768;11.474;2023-07-09T10:04:24;31.10;99.90
3792;DHT22;1911;53.768;11.474;2023-07-09T10:06:53;31.30;99.90
3792;DHT22;1911;53.768;11.474;2023-07-09T10:09:29;31.50;99.90
3792;DHT22;1911;53.768;11.474;2023-07-09T10:14:38;31.60;99.90
3792;DHT22;1911;53.768;11.474;2023-07-09T10:20:23;31.80;99.90
3792;DHT22;1911;53.768;11.474;2023-07-09T10:25:53;31.90;99.90
3792;DHT22;1911;53.768;11.474;2023-07-09T10:33:31;32.20;99.90
3792;DHT22;1911;53.768;11.474;2023-07-09T10:41:14;32.40;99.90
3792;DHT22;1911;53.768;11.474;2023-07-09T10:43:53;32.30;99.90
3792;DHT22;1911;53.768;11.474;2023-07-09T10:46:25;32.30;99.90
3792;DHT22;1911;53.768;11.474;2023-07-09T10:48:54;32.40;99.90
3792;DHT22;1911;53.768;11.474;2023-07-09T10:51:37;32.40;99.90
3792;DHT22;1911;53.768;11.474;2023-07-09T10:54:21;32.20;99.90
3792;DHT22;1911;53.768;11.474;2023-07-09T10:56:53;32.20;99.90
3792;DHT22;1911;53.768;11.474;2023-07-09T10:59:31;32.20;99.90
3792;DHT22;1911;53.768;11.474;2023-07-09T11:02:08;32.30;99.90
3792;DHT22;1911;53.768;11.474;2023-07-09T11:04:58;32.30;99.90
3792;DHT22;1911;53.768;11.474;2023-07-09T11:10:36;32.70;99.90
3792;DHT22;1911;53.768;11.474;2023-07-09T11:13:23;32.60;99.90
3792;DHT22;1911;53.768;11.474;2023-07-09T11:15:51;32.70;99.90
3792;DHT22;1911;53.768;11.474;2023-07-09T11:18:34;32.60;99.90
3792;DHT22;1911;53.768;11.474;2023-07-09T11:21:08;32.60;99.90
3792;DHT22;1911;53.768;11.474;2023-07-09T11:26:24;32.50;99.90
3792;DHT22;1911;53.768;11.474;2023-07-09T11:39:26;32.30;99.90
3792;DHT22;1911;53.768;11.474;2023-07-09T11:41:52;32.30;99.90
3792;DHT22;1911;53.768;11.474;2023-07-09T11:44:21;32.10;99.90
3792;DHT22;1911;53.768;11.474;2023-07-09T11:47:01;32.00;99.90
3792;DHT22;1911;53.768;11.474;2023-07-09T11:49:44;32.00;99.90
3792;DHT22;1911;53.768;11.474;2023-07-09T11:52:11;32.20;99.90
3792;DHT22;1911;53.768;11.474;2023-07-09T11:54:38;32.50;99.90
3792;DHT22;1911;53.768;11.474;2023-07-09T11:57:11;32.70;99.90
3792;DHT22;1911;53.768;11.474;2023-07-09T11:59:43;32.90;99.90
3792;DHT22;1911;53.768;11.474;2023-07-09T12:02:19;32.70;99.90
3792;DHT22;1911;53.768;11.474;2023-07-09T12:04:48;32.60;99.90
3792;DHT22;1911;53.768;11.474;2023-07-09T12:07:15;32.60;99.90
3792;DHT22;1911;53.768;11.474;2023-07-09T12:09:47;32.60;99.90
3792;DHT22;1911;53.768;11.474;2023-07-09T12:12:21;32.90;99.90
3792;DHT22;1911;53.768;11.474;2023-07-09T12:14:48;33.00;99.90
3792;DHT22;1911;53.768;11.474;2023-07-09T12:17:14;33.00;99.90
3792;DHT22;1911;53.768;11.474;2023-07-09T12:19:40;33.10;99.90
3792;DHT22;1911;53.768;11.474;2023-07-09T12:22:11;33.10;99.90
3792;DHT22;1911;53.768;11.474;2023-07-09T12:24:42;32.90;99.90
3792;DHT22;1911;53.768;11.474;2023-07-09T12:27:24;32.70;99.90
3792;DHT22;1911;53.768;11.474;2023-07-09T12:29:53;32.70;99.90
3792;DHT22;1911;53.768;11.474;2023-07-09T12:32:19;32.70;99.90
3792;DHT22;1911;53.768;11.474;2023-07-09T12:34:50;32.80;99.90
3792;DHT22;1911;53.768;11.474;2023-07-09T12:37:16;32.70;99.90
3792;DHT22;1911;53.768;11.474;2023-07-09T12:39:42;32.50;99.90
3792;DHT22;1911;53.768;11.474;2023-07-09T12:42:33;32.30;99.90
3792;DHT22;1911;53.768;11.474;2023-07-09T12:44:59;32.30;99.90
3792;DHT22;1911;53.768;11.474;2023-07-09T12:47:25;32.20;99.90
3792;DHT22;1911;53.768;11.474;2023-07-09T12:49:51;32.20;99.90
3792;DHT22;1911;53.768;11.474;2023-07-09T12:52:25;32.10;99.90
3792;DHT22;1911;53.768;11.474;2023-07-09T12:54:58;31.80;99.90
3792;DHT22;1911;53.768;11.474;2023-07-09T12:57:25;31.70;99.90
3792;DHT22;1911;53.768;11.474;2023-07-09T12:59:51;31.70;99.90
3792;DHT22;1911;53.768;11.474;2023-07-09T13:02:19;31.80;99.90
3792;DHT22;1911;53.768;11.474;2023-07-09T13:04:45;31.80;99.90
3792;DHT22;1911;53.768;11.474;2023-07-09T13:07:47;31.70;99.90
3792;DHT22;1911;53.768;11.474;2023-07-09T13:12:45;31.60;99.90
3792;DHT22;1911;53.768;11.474;2023-07-09T13:15:38;31.60;99.90
3792;DHT22;1911;53.768;11.474;2023-07-09T13:18:06;31.60;99.90
3792;DHT22;1911;53.768;11.474;2023-07-09T13:20:35;31.70;99.90
3792;DHT22;1911;53.768;11.474;2023-07-09T13:23:13;31.70;99.90
3792;DHT22;1911;53.768;11.474;2023-07-09T13:25:39;31.60;99.90
3792;DHT22;1911;53.768;11.474;2023-07-09T13:28:31;31.60;99.90
3792;DHT22;1911;53.768;11.474;2023-07-09T13:31:04;31.60;99.90
3792;DHT22;1911;53.768;11.474;2023-07-09T13:33:33;31.60;99.90
3792;DHT22;1911;53.768;11.474;2023-07-09T13:35:58;31.50;99.90
3792;DHT22;1911;53.768;11.474;2023-07-09T13:38:24;31.30;99.90
3792;DHT22;1911;53.768;11.474;2023-07-09T13:40:57;31.10;99.90
3792;DHT22;1911;53.768;11.474;2023-07-09T13:43:34;31.00;99.90
3792;DHT22;1911;53.768;11.474;2023-07-09T13:46:02;31.20;99.90
3792;DHT22;1911;53.768;11.474;2023-07-09T13:48:34;31.30;99.90
3792;DHT22;1911;53.768;11.474;2023-07-09T13:51:00;31.30;99.90
3792;DHT22;1911;53.768;11.474;2023-07-09T13:53:30;31.30;99.90
3792;DHT22;1911;53.768;11.474;2023-07-09T13:55:56;31.30;99.90
3792;DHT22;1911;53.768;11.474;2023-07-09T13:58:24;31.20;99.90
3792;DHT22;1911;53.768;11.474;2023-07-09T14:00:55;31.10;99.90
3792;DHT22;1911;53.768;11.474;2023-07-09T14:03:25;30.90;99.90
3792;DHT22;1911;53.768;11.474;2023-07-09T14:05:52;30.80;99.90
3792;DHT22;1911;53.768;11.474;2023-07-09T14:08:18;30.70;99.90
3792;DHT22;1911;53.768;11.474;2023-07-09T14:10:46;30.80;99.90
3792;DHT22;1911;53.768;11.474;2023-07-09T14:13:14;30.80;99.90
3792;DHT22;1911;53.768;11.474;2023-07-09T14:15:40;30.80;99.90
3792;DHT22;1911;53.768;11.474;2023-07-09T14:18:15;30.70;99.90
3792;DHT22;1911;53.768;11.474;2023-07-09T14:20:41;30.70;99.90
3792;DHT22;1911;53.768;11.474;2023-07-09T14:23:17;30.70;99.90
3792;DHT22;1911;53.768;11.474;2023-07-09T14:25:44;30.70;99.90
3792;DHT22;1911;53.768;11.474;2023-07-09T14:28:15;30.70;99.90
3792;DHT22;1911;53.768;11.474;2023-07-09T14:30:41;30.80;99.90
3792;DHT22;1911;53.768;11.474;2023-07-09T14:33:15;30.90;99.90
3792;DHT22;1911;53.768;11.474;2023-07-09T14:35:42;30.90;99.90
3792;DHT22;1911;53.768;11.474;2023-07-09T14:38:26;31.00;99.90
3792;DHT22;1911;53.768;11.474;2023-07-09T14:40:54;31.00;99.90
3792;DHT22;1911;53.768;11.474;2023-07-09T14:43:21;31.00;99.90
3792;DHT22;1911;53.768;11.474;2023-07-09T14:45:47;30.90;99.90
3792;DHT22;1911;53.768;11.474;2023-07-09T14:48:19;30.80;99.90
3792;DHT22;1911;53.768;11.474;2023-07-09T14:50:46;30.80;99.90
3792;DHT22;1911;53.768;11.474;2023-07-09T14:55:44;30.70;99.90
3792;DHT22;1911;53.768;11.474;2023-07-09T14:58:19;30.60;99.90
3792;DHT22;1911;53.768;11.474;2023-07-09T15:00:46;30.50;99.90
3792;DHT22;1911;53.768;11.474;2023-07-09T15:03:21;30.50;99.90
3792;DHT22;1911;53.768;11.474;2023-07-09T15:05:47;30.50;99.90
3792;DHT22;1911;53.768;11.474;2023-07-09T15:08:15;30.40;99.90
3792;DHT22;1911;53.768;11.474;2023-07-09T15:10:41;30.20;99.90
3792;DHT22;1911;53.768;11.474;2023-07-09T15:13:32;30.00;99.90
3792;DHT22;1911;53.768;11.474;2023-07-09T15:15:59;30.00;99.90
3792;DHT22;1911;53.768;11.474;2023-07-09T15:18:25;30.10;99.90
3792;DHT22;1911;53.768;11.474;2023-07-09T15:20:56;30.10;99.50
3792;DHT22;1911;53.768;11.474;2023-07-09T15:23:23;30.30;96.60
3792;DHT22;1911;53.768;11.474;2023-07-09T15:25:50;30.40;99.90
3792;DHT22;1911;53.768;11.474;2023-07-09T15:28:16;30.40;99.90
3792;DHT22;1911;53.768;11.474;2023-07-09T15:30:42;30.40;99.90
3792;DHT22;1911;53.768;11.474;2023-07-09T15:33:19;30.40;99.90
3792;DHT22;1911;53.768;11.474;2023-07-09T15:35:47;30.40;99.90
3792;DHT22;1911;53.768;11.474;2023-07-09T15:40:46;30.80;99.90
3792;DHT22;1911;53.768;11.474;2023-07-09T15:43:12;30.90;99.90
3792;DHT22;1911;53.768;11.474;2023-07-09T15:45:41;31.00;99.90
3792;DHT22;1911;53.768;11.474;2023-07-09T15:50:51;31.30;99.90
3792;DHT22;1911;53.768;11.474;2023-07-09T15:53:17;31.40;99.90
3792;DHT22;1911;53.768;11.474;2023-07-09T15:55:43;31.40;99.90
3792;DHT22;1911;53.768;11.474;2023-07-09T15:58:18;31.30;99.90
3792;DHT22;1911;53.768;11.474;2023-07-09T16:00:44;31.30;99.90
3792;DHT22;1911;53.768;11.474;2023-07-09T16:03:10;31.30;99.90
3792;DHT22;1911;53.768;11.474;2023-07-09T16:05:37;31.20;99.90
3792;DHT22;1911;53.768;11.474;2023-07-09T16:08:04;31.10;99.90
3792;DHT22;1911;53.768;11.474;2023-07-09T16:10:31;31.00;99.90
3792;DHT22;1911;53.768;11.474;2023-07-09T16:12:59;30.90;99.90
3792;DHT22;1911;53.768;11.474;2023-07-09T16:15:26;30.90;92.30
3792;DHT22;1911;53.768;11.474;2023-07-09T16:17:54;30.80;94.20
3792;DHT22;1911;53.768;11.474;2023-07-09T16:20:25;30.90;88.50
3792;DHT22;1911;53.768;11.474;2023-07-09T16:22:56;31.00;99.90
3792;DHT22;1911;53.768;11.474;2023-07-09T16:25:33;31.00;99.90
3792;DHT22;1911;53.768;11.474;2023-07-09T16:27:59;31.10;99.90
3792;DHT22;1911;53.768;11.474;2023-07-09T16:30:27;31.10;99.90
3792;DHT22;1911;53.768;11.474;2023-07-09T16:32:57;31.20;99.90
3792;DHT22;1911;53.768;11.474;2023-07-09T16:35:28;31.50;99.90
3792;DHT22;1911;53.768;11.474;2023-07-09T16:37:54;31.90;99.90
3792;DHT22;1911;53.768;11.474;2023-07-09T16:40:28;32.20;99.90
3792;DHT22;1911;53.768;11.474;2023-07-09T16:42:55;32.20;99.90
3792;DHT22;1911;53.768;11.474;2023-07-09T16:45:23;32.30;99.90
3792;DHT22;1911;53.768;11.474;2023-07-09T16:47:50;32.40;99.90
3792;DHT22;1911;53.768;11.474;2023-07-09T16:50:25;32.80;99.90
3792;DHT22;1911;53.768;11.474;2023-07-09T16:52:53;33.10;99.90
3792;DHT22;1911;53.768;11.474;2023-07-09T16:55:24;33.10;99.90
3792;DHT22;1911;53.768;11.474;2023-07-09T16:57:55;32.90;99.90
3792;DHT22;1911;53.768;11.474;2023-07-09T17:00:31;32.50;99.90
3792;DHT22;1911;53.768;11.474;2023-07-09T17:03:03;32.00;99.90
3792;DHT22;1911;53.768;11.474;2023-07-09T17:05:29;31.50;99.90